createdAt,value
2023-03-08T00:01:19.056Z,0.72
2023-03-08T00:03:46.533Z,0.61
2023-03-08T00:06:15.466Z,0.97
2023-03-08T00:08:42.873Z,0.72
2023-03-08T00:11:11.487Z,0.64
2023-03-08T00:13:38.247Z,0.77
2023-03-08T00:16:07.532Z,0.98
2023-03-08T00:18:35.379Z,0.66
2023-03-08T00:21:07.868Z,0.70
2023-03-08T00:23:34.978Z,0.92
2023-03-08T00:26:01.489Z,0.90
2023-03-08T00:28:28.359Z,0.88
2023-03-08T00:31:04.130Z,0.95
2023-03-08T00:33:32.966Z,0.86
2023-03-08T00:36:05.356Z,0.86
2023-03-08T00:38:33.908Z,0.75
2023-03-08T00:41:00.487Z,0.51
2023-03-08T00:43:27.861Z,0.83
2023-03-08T00:45:54.405Z,0.96
2023-03-08T00:48:21.360Z,1.05
2023-03-08T00:50:48.426Z,0.99
2023-03-08T00:53:15.213Z,0.41
2023-03-08T00:55:56.093Z,0.97
2023-03-08T00:58:23.988Z,1.00
2023-03-08T01:00:50.767Z,0.98
2023-03-08T01:03:18.308Z,1.02
2023-03-08T01:05:50.335Z,0.69
2023-03-08T01:08:18.208Z,1.02
2023-03-08T01:10:58.748Z,0.51
2023-03-08T01:13:32.475Z,0.98
2023-03-08T01:15:59.925Z,0.92
2023-03-08T01:18:26.718Z,1.06
2023-03-08T01:21:04.042Z,0.90
2023-03-08T01:23:31.308Z,0.90
2023-03-08T01:26:03.117Z,1.06
2023-03-08T01:28:29.997Z,0.98
2023-03-08T01:31:04.794Z,0.92
2023-03-08T01:33:31.817Z,0.59
2023-03-08T01:35:58.318Z,0.35
2023-03-08T01:38:25.089Z,0.90
2023-03-08T01:40:58.923Z,0.86
2023-03-08T01:43:31.127Z,0.78
2023-03-08T01:46:31.043Z,0.86
2023-03-08T01:49:14.242Z,0.26
2023-03-08T01:51:44.052Z,0.74
2023-03-08T01:54:18.073Z,0.78
2023-03-08T01:56:46.954Z,-0.43
2023-03-08T01:59:14.621Z,0.65
2023-03-08T02:01:41.624Z,0.50
2023-03-08T02:04:09.689Z,0.69
2023-03-08T02:06:36.207Z,0.74
2023-03-08T02:09:05.138Z,0.78
2023-03-08T02:11:37.226Z,0.73
2023-03-08T02:14:04.359Z,0.63
2023-03-08T02:16:31.245Z,0.39
2023-03-08T02:19:01.050Z,0.66
2023-03-08T02:21:29.296Z,0.57
2023-03-08T02:23:56.166Z,0.28
2023-03-08T02:26:23.522Z,0.48
2023-03-08T02:28:50.044Z,0.24
2023-03-08T02:31:16.653Z,0.39
2023-03-08T02:33:43.198Z,0.32
2023-03-08T02:36:10.344Z,0.64
2023-03-08T02:38:37.516Z,0.79
2023-03-08T02:41:04.074Z,0.76
2023-03-08T02:43:30.547Z,1.00
2023-03-08T02:45:57.105Z,1.30
2023-03-08T02:48:23.542Z,1.44
2023-03-08T02:50:50.161Z,0.87
2023-03-08T02:53:16.824Z,0.97
2023-03-08T02:55:43.340Z,0.84
2023-03-08T02:58:10.447Z,1.20
2023-03-08T03:00:38.464Z,0.87
2023-03-08T03:03:05.109Z,0.86
2023-03-08T03:05:31.806Z,0.32
2023-03-08T03:07:59.253Z,1.00
2023-03-08T03:10:26.221Z,1.18
2023-03-08T03:12:52.977Z,0.98
2023-03-08T03:15:19.525Z,0.96
2023-03-08T03:17:46.052Z,0.90
2023-03-08T03:20:13.088Z,1.24
2023-03-08T03:22:39.634Z,1.17
2023-03-08T03:25:06.475Z,0.88
2023-03-08T03:27:32.974Z,0.50
2023-03-08T03:29:59.523Z,0.75
2023-03-08T03:32:26.065Z,0.72
2023-03-08T03:34:52.746Z,0.85
2023-03-08T03:37:19.403Z,0.63
2023-03-08T03:39:45.916Z,1.19
2023-03-08T03:42:12.477Z,1.18
2023-03-08T03:44:39.092Z,1.15
2023-03-08T03:47:06.374Z,1.37
2023-03-08T03:49:32.874Z,0.88
2023-03-08T03:51:59.336Z,1.09
2023-03-08T03:54:26.263Z,1.39
2023-03-08T03:56:52.800Z,1.39
2023-03-08T03:59:19.323Z,1.53
2023-03-08T04:01:45.837Z,1.32
2023-03-08T04:04:12.386Z,1.32
2023-03-08T04:06:39.155Z,1.59
2023-03-08T04:09:08.312Z,1.45
2023-03-08T04:11:37.790Z,1.34
2023-03-08T04:14:04.991Z,1.31
2023-03-08T04:16:34.037Z,1.11
2023-03-08T04:19:03.437Z,1.07
2023-03-08T04:21:30.924Z,1.18
2023-03-08T04:23:59.521Z,1.14
2023-03-08T04:26:27.092Z,1.51
2023-03-08T04:28:53.696Z,1.50
2023-03-08T04:31:23.481Z,1.37
2023-03-08T04:33:50.725Z,1.34
2023-03-08T04:36:18.291Z,1.44
2023-03-08T04:38:46.058Z,1.71
2023-03-08T04:41:14.702Z,1.55
2023-03-08T04:43:48.293Z,1.53
2023-03-08T04:46:16.242Z,1.56
2023-03-08T04:48:42.863Z,1.42
2023-03-08T04:51:11.963Z,1.52
2023-03-08T04:53:39.340Z,1.39
2023-03-08T04:56:06.901Z,1.47
2023-03-08T04:58:33.918Z,1.50
2023-03-08T05:01:00.504Z,1.34
2023-03-08T05:03:27.312Z,1.69
2023-03-08T05:05:55.927Z,1.66
2023-03-08T05:08:22.880Z,1.10
2023-03-08T05:10:54.223Z,1.01
2023-03-08T05:13:20.831Z,0.89
2023-03-08T05:15:47.371Z,1.39
2023-03-08T05:18:13.925Z,1.52
2023-03-08T05:20:40.630Z,1.39
2023-03-08T05:23:07.283Z,1.09
2023-03-08T05:25:34.491Z,1.37
2023-03-08T05:28:01.007Z,1.72
2023-03-08T05:30:27.525Z,1.35
2023-03-08T05:32:54.017Z,1.37
2023-03-08T05:35:20.583Z,1.55
2023-03-08T05:37:47.039Z,1.09
2023-03-08T05:40:13.687Z,1.56
2023-03-08T05:42:40.235Z,1.80
2023-03-08T05:45:07.363Z,1.73
2023-03-08T05:47:33.900Z,1.87
2023-03-08T05:50:00.379Z,1.50
2023-03-08T05:52:26.941Z,1.03
2023-03-08T05:54:53.478Z,1.75
2023-03-08T05:57:19.973Z,1.82
2023-03-08T05:59:46.494Z,1.54
2023-03-08T06:02:13.013Z,1.88
2023-03-08T06:04:39.572Z,1.59
2023-03-08T06:07:06.117Z,2.04
2023-03-08T06:09:32.630Z,2.20
2023-03-08T06:11:59.072Z,2.13
2023-03-08T06:14:25.668Z,1.76
2023-03-08T06:16:52.344Z,1.66
2023-03-08T06:19:18.862Z,1.80
2023-03-08T06:21:45.311Z,1.99
2023-03-08T06:24:11.755Z,1.71
2023-03-08T06:26:38.339Z,1.14
2023-03-08T06:29:04.838Z,1.59
2023-03-08T06:31:31.367Z,1.63
2023-03-08T06:33:57.994Z,1.55
2023-03-08T06:36:24.555Z,1.39
2023-03-08T06:38:51.118Z,1.30
2023-03-08T06:41:19.848Z,1.51
2023-03-08T06:43:46.468Z,1.20
2023-03-08T06:46:17.164Z,1.30
2023-03-08T06:48:44.123Z,1.55
2023-03-08T06:51:11.194Z,2.00
2023-03-08T06:53:38.314Z,1.94
2023-03-08T06:56:06.932Z,1.23
2023-03-08T06:58:35.112Z,1.02
2023-03-08T07:01:04.314Z,1.93
2023-03-08T07:03:32.040Z,2.33
2023-03-08T07:06:06.745Z,2.31
2023-03-08T07:08:34.154Z,2.06
2023-03-08T07:11:01.429Z,2.19
2023-03-08T07:13:29.819Z,1.58
2023-03-08T07:15:56.974Z,1.76
2023-03-08T07:18:26.737Z,2.24
2023-03-08T07:20:57.033Z,2.17
2023-03-08T07:23:24.039Z,2.03
2023-03-08T07:25:50.764Z,2.06
2023-03-08T07:28:18.488Z,1.71
2023-03-08T07:30:50.037Z,2.37
2023-03-08T07:33:17.935Z,2.07
2023-03-08T07:35:44.790Z,1.73
2023-03-08T07:38:12.487Z,1.77
2023-03-08T07:40:39.217Z,2.35
2023-03-08T07:43:06.454Z,2.33
2023-03-08T07:45:33.236Z,2.93
2023-03-08T07:47:59.827Z,1.94
2023-03-08T07:50:27.402Z,2.92
2023-03-08T07:52:54.018Z,2.75
2023-03-08T07:55:21.539Z,2.88
2023-03-08T07:57:48.067Z,3.07
2023-03-08T08:00:14.861Z,2.48
2023-03-08T08:02:41.377Z,2.18
2023-03-08T08:05:08.331Z,2.90
2023-03-08T08:07:34.809Z,2.04
2023-03-08T08:10:01.291Z,2.31
2023-03-08T08:12:27.809Z,2.55
2023-03-08T08:14:54.424Z,2.34
2023-03-08T08:17:21.426Z,2.69
2023-03-08T08:19:49.362Z,3.49
2023-03-08T08:22:15.951Z,3.53
2023-03-08T08:24:42.734Z,3.11
2023-03-08T08:27:09.202Z,3.29
2023-03-08T08:29:37.649Z,3.42
2023-03-08T08:32:04.902Z,2.97
2023-03-08T08:34:31.470Z,3.20
2023-03-08T08:36:58.000Z,3.76
2023-03-08T08:39:24.567Z,3.05
2023-03-08T08:41:51.076Z,2.95
2023-03-08T08:44:17.784Z,3.56
2023-03-08T08:46:44.608Z,4.13
2023-03-08T08:49:11.333Z,3.82
2023-03-08T08:51:37.840Z,3.79
2023-03-08T08:54:06.088Z,3.95
2023-03-08T08:56:32.681Z,3.64
2023-03-08T08:59:03.165Z,4.12
2023-03-08T09:01:32.083Z,3.39
2023-03-08T09:03:59.612Z,3.91
2023-03-08T09:06:27.930Z,3.95
2023-03-08T09:08:57.797Z,3.72
2023-03-08T09:11:26.982Z,3.77
2023-03-08T09:13:54.093Z,3.47
2023-03-08T09:16:26.629Z,3.41
2023-03-08T09:18:53.707Z,3.42
2023-03-08T09:21:20.276Z,2.73
2023-03-08T09:23:46.891Z,2.67
2023-03-08T09:26:13.460Z,3.52
2023-03-08T09:28:40.383Z,3.62
2023-03-08T09:31:15.070Z,3.29
2023-03-08T09:33:43.928Z,3.60
2023-03-08T09:36:10.923Z,3.25
2023-03-08T09:38:37.739Z,3.49
2023-03-08T09:41:07.026Z,3.25
2023-03-08T09:43:47.268Z,3.56
2023-03-08T09:46:20.782Z,3.68
2023-03-08T09:48:50.958Z,3.86
2023-03-08T09:51:19.642Z,3.84
2023-03-08T09:54:01.105Z,3.41
2023-03-08T09:56:41.675Z,3.49
2023-03-08T09:59:14.805Z,3.53
2023-03-08T10:01:56.805Z,3.48
2023-03-08T10:04:35.485Z,3.77
2023-03-08T10:07:20.049Z,3.76
2023-03-08T10:10:02.051Z,3.55
2023-03-08T10:12:52.417Z,3.50
2023-03-08T10:15:22.297Z,3.36
2023-03-08T10:18:00.957Z,4.10
2023-03-08T10:20:40.820Z,3.70
2023-03-08T10:23:17.633Z,4.47
2023-03-08T10:25:45.035Z,4.26
2023-03-08T10:28:15.114Z,4.29
2023-03-08T10:30:55.039Z,4.36
2023-03-08T10:33:34.964Z,4.50
2023-03-08T10:36:21.318Z,4.20
2023-03-08T10:39:11.420Z,4.44
2023-03-08T10:41:52.982Z,4.45
2023-03-08T10:44:47.196Z,4.14
2023-03-08T10:47:21.422Z,3.88
2023-03-08T10:49:47.996Z,4.54
2023-03-08T10:52:28.169Z,4.45
2023-03-08T10:55:19.420Z,4.82
2023-03-08T10:57:53.301Z,5.00
2023-03-08T11:00:19.711Z,4.60
2023-03-08T11:02:47.831Z,4.68
2023-03-08T11:05:23.608Z,4.37
2023-03-08T11:07:56.813Z,4.82
2023-03-08T11:10:27.003Z,4.00
2023-03-08T11:13:03.925Z,5.15
2023-03-08T11:15:35.136Z,4.90
2023-03-08T11:18:28.355Z,5.71
2023-03-08T11:21:01.054Z,5.78
2023-03-08T11:23:39.941Z,5.96
2023-03-08T11:26:28.116Z,5.73
2023-03-08T11:29:31.046Z,6.33
2023-03-08T11:32:30.606Z,6.46
2023-03-08T11:35:07.024Z,6.82
2023-03-08T11:37:48.773Z,6.86
2023-03-08T11:40:25.944Z,7.05
2023-03-08T11:43:23.936Z,6.75
2023-03-08T11:46:15.587Z,7.00
2023-03-08T11:49:05.090Z,6.97
2023-03-08T11:51:45.819Z,7.44
2023-03-08T11:54:19.325Z,7.70
2023-03-08T11:56:55.459Z,7.94
2023-03-08T11:59:31.865Z,7.78
2023-03-08T12:02:07.231Z,8.03
2023-03-08T12:04:46.149Z,7.74
2023-03-08T12:07:59.807Z,8.32
2023-03-08T12:10:38.310Z,8.45
2023-03-08T12:13:20.729Z,8.45
2023-03-08T12:16:29.284Z,8.31
2023-03-08T12:19:17.392Z,7.98
2023-03-08T12:22:13.401Z,8.13
2023-03-08T12:24:59.660Z,7.83
2023-03-08T12:27:32.341Z,8.69
2023-03-08T12:30:27.503Z,8.42
2023-03-08T12:32:56.699Z,8.69
2023-03-08T12:35:23.352Z,8.87
2023-03-08T12:38:05.886Z,8.82
2023-03-08T12:40:46.065Z,8.52
2023-03-08T12:43:21.968Z,8.71
2023-03-08T12:46:03.545Z,8.59
2023-03-08T12:48:35.665Z,8.53
2023-03-08T12:51:04.078Z,8.50
2023-03-08T12:53:33.871Z,8.68
2023-03-08T12:56:03.598Z,8.81
2023-03-08T12:58:31.600Z,8.83
2023-03-08T13:01:01.284Z,8.94
2023-03-08T13:03:41.249Z,8.48
2023-03-08T13:06:22.828Z,8.19
2023-03-08T13:08:55.815Z,7.61
2023-03-08T13:11:24.405Z,7.77
2023-03-08T13:14:00.926Z,7.94
2023-03-08T13:16:36.286Z,8.13
2023-03-08T13:19:09.105Z,8.14
2023-03-08T13:21:41.717Z,7.88
2023-03-08T13:24:30.841Z,7.82
2023-03-08T13:27:21.662Z,8.01
2023-03-08T13:29:48.598Z,8.02
2023-03-08T13:32:24.456Z,7.88
2023-03-08T13:35:02.652Z,8.22
2023-03-08T13:37:30.678Z,8.15
2023-03-08T13:39:59.067Z,7.93
2023-03-08T13:42:27.699Z,7.73
2023-03-08T13:45:09.946Z,7.86
2023-03-08T13:47:39.233Z,7.90
2023-03-08T13:50:06.480Z,8.62
2023-03-08T13:52:36.785Z,8.95
2023-03-08T13:55:07.410Z,8.81
2023-03-08T13:57:38.213Z,8.54
2023-03-08T14:00:27.674Z,8.17
2023-03-08T14:02:54.921Z,8.77
2023-03-08T14:05:24.920Z,9.04
2023-03-08T14:07:59.816Z,8.80
2023-03-08T14:10:48.216Z,8.97
2023-03-08T14:13:33.494Z,10.18
2023-03-08T14:16:03.629Z,10.12
2023-03-08T14:18:36.546Z,10.31
2023-03-08T14:21:04.773Z,10.34
2023-03-08T14:23:37.868Z,9.54
2023-03-08T14:26:04.949Z,9.87
2023-03-08T14:28:40.819Z,9.26
2023-03-08T14:31:25.572Z,9.40
2023-03-08T14:34:03.860Z,9.43
2023-03-08T14:36:33.592Z,9.37
2023-03-08T14:39:00.390Z,9.04
2023-03-08T14:41:35.577Z,7.99
2023-03-08T14:44:04.902Z,9.07
2023-03-08T14:46:32.087Z,9.35
2023-03-08T14:49:04.842Z,9.22
2023-03-08T14:51:43.092Z,9.92
2023-03-08T14:54:39.376Z,10.09
2023-03-08T14:57:21.626Z,10.56
2023-03-08T14:59:49.229Z,10.17
2023-03-08T15:02:18.707Z,10.03
2023-03-08T15:04:45.910Z,9.15
2023-03-08T15:07:23.975Z,9.90
2023-03-08T15:09:51.809Z,9.09
2023-03-08T15:12:18.533Z,9.57
2023-03-08T15:14:45.169Z,9.05
2023-03-08T15:17:11.731Z,8.83
2023-03-08T15:19:38.303Z,9.03
2023-03-08T15:22:06.418Z,8.10
2023-03-08T15:32:38.918Z,8.26
2023-03-08T15:35:13.651Z,8.63
2023-03-08T15:37:41.279Z,8.49
2023-03-08T15:40:13.944Z,7.17
2023-03-08T15:42:40.715Z,8.09
2023-03-08T15:45:08.256Z,7.75
2023-03-08T15:47:34.936Z,7.75
2023-03-08T15:50:04.444Z,7.57
2023-03-08T15:52:32.808Z,7.68
2023-03-08T15:54:59.668Z,7.25
2023-03-08T15:57:26.217Z,6.96
2023-03-08T15:59:52.704Z,7.10
2023-03-08T16:02:20.804Z,7.10
2023-03-08T16:04:49.236Z,7.04
2023-03-08T16:07:17.881Z,7.02
2023-03-08T16:09:45.650Z,6.88
2023-03-08T16:12:14.413Z,6.57
2023-03-08T16:14:47.526Z,6.69
2023-03-08T16:17:17.495Z,6.53
2023-03-08T16:19:44.640Z,6.55
2023-03-08T16:22:11.420Z,6.37
2023-03-08T16:24:38.131Z,6.28
2023-03-08T16:27:04.928Z,6.38
2023-03-08T16:29:32.788Z,6.10
2023-03-08T16:31:59.805Z,5.31
2023-03-08T16:34:28.105Z,6.11
2023-03-08T16:36:55.885Z,5.99
2023-03-08T16:39:23.161Z,5.88
2023-03-08T16:41:50.082Z,5.59
2023-03-08T16:44:22.909Z,5.96
2023-03-08T16:46:49.710Z,5.84
2023-03-08T16:49:17.344Z,5.80
2023-03-08T16:51:44.369Z,5.74
2023-03-08T16:54:12.038Z,4.81
2023-03-08T16:56:40.743Z,5.37
2023-03-08T16:59:07.358Z,5.50
2023-03-08T17:01:34.922Z,5.09
2023-03-08T17:04:01.580Z,5.15
2023-03-08T17:06:30.040Z,5.24
2023-03-08T17:08:57.874Z,5.01
2023-03-08T17:11:28.086Z,4.06
2023-03-08T17:14:15.219Z,4.98
2023-03-08T17:16:41.950Z,4.94
2023-03-08T17:19:11.041Z,4.87
2023-03-08T17:21:38.580Z,4.30
2023-03-08T17:24:07.804Z,4.74
2023-03-08T17:26:40.392Z,4.68
2023-03-08T17:29:06.971Z,4.64
2023-03-08T17:31:33.707Z,4.66
2023-03-08T17:34:00.289Z,4.55
2023-03-08T17:36:27.471Z,4.43
2023-03-08T17:38:55.445Z,4.44
2023-03-08T17:41:23.218Z,4.52
2023-03-08T17:43:53.213Z,4.37
2023-03-08T17:46:23.276Z,4.41
2023-03-08T17:48:51.556Z,4.35
2023-03-08T17:51:21.724Z,4.26
2023-03-08T17:53:48.965Z,4.33
2023-03-08T17:56:18.434Z,4.01
2023-03-08T17:58:45.005Z,4.00
2023-03-08T18:01:14.939Z,4.20
2023-03-08T18:03:41.942Z,4.18
2023-03-08T18:06:15.845Z,4.17
2023-03-08T18:08:42.399Z,3.65
2023-03-08T18:11:08.879Z,4.08
2023-03-08T18:13:35.433Z,4.10
2023-03-08T18:16:04.566Z,3.42
2023-03-08T18:18:31.574Z,3.32
2023-03-08T18:21:12.182Z,3.69
2023-03-08T18:23:41.879Z,3.88
2023-03-08T18:26:10.404Z,3.95
2023-03-08T18:28:37.059Z,3.67
2023-03-08T18:31:12.036Z,3.94
2023-03-08T18:33:39.452Z,3.97
2023-03-08T18:36:06.768Z,4.00
2023-03-08T18:38:33.585Z,2.92
2023-03-08T18:41:00.099Z,3.92
2023-03-08T18:43:26.694Z,3.68
2023-03-08T18:45:55.531Z,3.82
2023-03-08T18:48:24.296Z,3.85
2023-03-08T18:50:50.974Z,3.63
2023-03-08T18:53:18.117Z,3.36
2023-03-08T18:55:59.391Z,3.78
2023-03-08T18:58:26.735Z,3.25
2023-03-08T19:00:56.233Z,3.65
2023-03-08T19:03:23.447Z,3.47
2023-03-08T19:05:50.054Z,3.58
2023-03-08T19:08:16.786Z,3.30
2023-03-08T19:10:43.381Z,3.40
2023-03-08T19:13:09.885Z,3.32
2023-03-08T19:15:38.076Z,3.42
2023-03-08T19:18:06.228Z,3.11
2023-03-08T19:20:40.537Z,3.46
2023-03-08T19:23:08.500Z,3.42
2023-03-08T19:25:59.604Z,3.43
2023-03-08T19:28:27.378Z,3.08
2023-03-08T19:30:53.875Z,3.21
2023-03-08T19:33:30.398Z,3.18
2023-03-08T19:35:57.775Z,3.20
2023-03-08T19:38:24.276Z,3.12
2023-03-08T19:40:50.734Z,2.98
2023-03-08T19:43:17.265Z,3.15
2023-03-08T19:45:48.973Z,3.13
2023-03-08T19:48:15.627Z,2.76
2023-03-08T19:50:46.347Z,3.16
2023-03-08T19:53:12.990Z,3.08
2023-03-08T19:55:48.495Z,2.83
2023-03-08T19:58:15.182Z,3.22
2023-03-08T20:00:44.156Z,3.33
2023-03-08T20:03:12.122Z,3.40
2023-03-08T20:05:46.841Z,3.28
2023-03-08T20:08:13.649Z,3.16
2023-03-08T20:10:40.387Z,3.00
2023-03-08T20:13:07.553Z,2.86
2023-03-08T20:15:34.097Z,3.18
2023-03-08T20:18:00.634Z,3.31
2023-03-08T20:20:27.150Z,3.27
2023-03-08T20:22:53.850Z,3.26
2023-03-08T20:25:20.518Z,3.30
2023-03-08T20:27:47.061Z,3.16
2023-03-08T20:30:14.735Z,3.05
2023-03-08T20:32:41.460Z,2.77
2023-03-08T20:35:13.867Z,3.24
2023-03-08T20:37:40.562Z,2.97
2023-03-08T20:40:09.213Z,2.95
2023-03-08T20:42:36.837Z,3.38
2023-03-08T20:45:07.022Z,2.92
2023-03-08T20:47:33.540Z,2.75
2023-03-08T20:50:00.158Z,3.17
2023-03-08T20:52:26.660Z,3.17
2023-03-08T20:54:53.195Z,3.24
2023-03-08T20:57:19.739Z,2.82
2023-03-08T20:59:46.261Z,3.04
2023-03-08T21:02:13.767Z,2.88
2023-03-08T21:04:40.391Z,2.71
2023-03-08T21:07:07.005Z,3.16
2023-03-08T21:09:34.134Z,2.78
2023-03-08T21:12:00.789Z,2.95
2023-03-08T21:14:29.113Z,3.03
2023-03-08T21:16:55.908Z,2.72
2023-03-08T21:19:24.221Z,2.95
2023-03-08T21:21:51.426Z,2.63
2023-03-08T21:24:20.170Z,3.15
2023-03-08T21:26:46.864Z,2.96
2023-03-08T21:29:16.470Z,2.36
2023-03-08T21:31:48.557Z,2.56
2023-03-08T21:34:15.682Z,2.85
2023-03-08T21:36:42.813Z,2.84
2023-03-08T21:39:10.198Z,2.44
2023-03-08T21:41:39.645Z,2.80
2023-03-08T21:44:13.922Z,2.70
2023-03-08T21:46:41.462Z,2.67
2023-03-08T21:49:10.356Z,2.53
2023-03-08T21:51:38.435Z,2.56
2023-03-08T21:54:06.018Z,2.65
2023-03-08T21:56:35.355Z,2.28
2023-03-08T21:59:02.697Z,2.71
2023-03-08T22:01:31.323Z,2.50
2023-03-08T22:03:58.582Z,2.75
2023-03-08T22:06:25.749Z,2.74
2023-03-08T22:08:52.508Z,2.48
2023-03-08T22:11:20.058Z,2.49
2023-03-08T22:13:52.003Z,2.88
2023-03-08T22:16:19.551Z,2.82
2023-03-08T22:18:46.441Z,1.83
2023-03-08T22:21:13.611Z,2.81
2023-03-08T22:23:40.175Z,2.62
2023-03-08T22:26:07.985Z,2.71
2023-03-08T22:28:34.561Z,2.72
2023-03-08T22:31:01.077Z,2.74
2023-03-08T22:33:27.755Z,2.72
2023-03-08T22:35:54.270Z,2.52
2023-03-08T22:38:21.097Z,2.66
2023-03-08T22:40:47.610Z,2.10
2023-03-08T22:43:14.318Z,2.95
2023-03-08T22:45:40.947Z,2.98
2023-03-08T22:48:07.425Z,2.84
2023-03-08T22:50:33.950Z,2.75
2023-03-08T22:53:00.481Z,2.96
2023-03-08T22:55:27.214Z,2.99
2023-03-08T22:57:55.719Z,2.60
2023-03-08T23:00:22.317Z,2.84
2023-03-08T23:02:49.026Z,2.80
2023-03-08T23:05:18.239Z,2.87
2023-03-08T23:07:45.265Z,2.88
2023-03-08T23:10:13.009Z,2.40
2023-03-08T23:12:39.613Z,2.32
2023-03-08T23:15:07.007Z,2.72
2023-03-08T23:17:33.991Z,2.46
2023-03-08T23:20:00.469Z,2.72
2023-03-08T23:22:27.154Z,2.58
2023-03-08T23:24:53.714Z,2.35
2023-03-08T23:27:20.272Z,2.59
2023-03-08T23:29:46.763Z,2.44
2023-03-08T23:32:13.571Z,2.66
2023-03-08T23:34:40.646Z,2.64
2023-03-08T23:37:07.172Z,2.21
2023-03-08T23:39:34.127Z,2.44
2023-03-08T23:42:00.949Z,1.94
2023-03-08T23:44:28.087Z,2.20
2023-03-08T23:46:54.611Z,1.99
2023-03-08T23:49:21.189Z,2.05
2023-03-08T23:51:47.761Z,2.19
2023-03-08T23:54:14.541Z,2.29
2023-03-08T23:56:41.670Z,2.33
2023-03-08T23:59:13.204Z,2.35
